Time;durP1;ratioP1;P1;durP2;ratioP2;P2;SDS_P1;SDS_P2;PMS_P1;PMS_P2;Temp;Humidity;BMP_temperature;BMP_pressure;BME280_temperature;BME280_humidity;BME280_pressure;Samples;Min_cycle;Max_cycle;Signal;HPM_P1;HPM_P2
2021/09/10 00:01:30;;;;;;;15.23;13.63;;;20.40;99.90;;;;;;4895691;29;20055;-77
2021/09/10 00:04:01;;;;;;;15.25;13.70;;;20.30;99.90;;;;;;4897377;29;20039;-77
2021/09/10 00:06:27;;;;;;;14.47;12.97;;;20.20;99.90;;;;;;4897510;29;20116;-77
2021/09/10 00:08:53;;;;;;;15.48;12.95;;;20.10;99.90;;;;;;4896629;29;20115;-73
2021/09/10 00:11:18;;;;;;;14.95;13.50;;;20.10;99.90;;;;;;4896192;29;20104;-78
2021/09/10 00:13:44;;;;;;;14.77;13.07;;;20.00;99.90;;;;;;4897439;29;20572;-75
2021/09/10 00:16:09;;;;;;;14.65;13.25;;;20.00;99.90;;;;;;4897081;29;20485;-81
2021/09/10 00:18:35;;;;;;;14.68;13.20;;;20.00;99.90;;;;;;4896739;29;20404;-85
2021/09/10 00:21:00;;;;;;;15.98;14.30;;;19.90;99.90;;;;;;4897237;29;20025;-90
2021/09/10 00:23:26;;;;;;;15.02;13.60;;;19.80;99.90;;;;;;4896811;29;20450;-84
2021/09/10 00:25:51;;;;;;;15.55;14.05;;;19.80;99.90;;;;;;4897011;29;20115;-84
2021/09/10 00:28:17;;;;;;;15.30;13.75;;;19.80;99.90;;;;;;4897323;29;20023;-80
2021/09/10 00:30:42;;;;;;;14.68;13.27;;;19.80;99.90;;;;;;4895562;29;20508;-88
2021/09/10 00:33:08;;;;;;;16.25;14.55;;;19.70;99.90;;;;;;4897168;29;20040;-91
2021/09/10 00:35:33;;;;;;;15.75;14.15;;;19.70;99.90;;;;;;4897732;29;20029;-80
2021/09/10 00:37:59;;;;;;;15.13;13.73;;;19.60;99.90;;;;;;4896397;29;20029;-84
2021/09/10 00:40:25;;;;;;;15.63;14.02;;;19.60;99.90;;;;;;4897302;29;20512;-81
2021/09/10 00:42:50;;;;;;;15.15;13.65;;;19.60;99.90;;;;;;4895973;29;20465;-78
2021/09/10 00:45:16;;;;;;;16.30;14.63;;;19.60;99.90;;;;;;4895427;29;20071;-81
2021/09/10 00:47:41;;;;;;;16.60;15.00;;;19.60;99.90;;;;;;4896877;29;20052;-80
2021/09/10 00:50:08;;;;;;;14.57;13.27;;;19.60;99.90;;;;;;4896117;29;20029;-76
2021/09/10 00:52:34;;;;;;;14.82;13.43;;;19.50;99.90;;;;;;4895300;29;20041;-76
2021/09/10 00:55:00;;;;;;;18.48;13.98;;;19.50;99.90;;;;;;4897090;29;20020;-90
2021/09/10 00:57:26;;;;;;;14.93;13.43;;;19.50;99.90;;;;;;4895874;29;20147;-73
2021/09/10 00:59:52;;;;;;;15.50;14.10;;;19.50;99.90;;;;;;4896315;29;20398;-72
2021/09/10 01:02:18;;;;;;;15.70;14.30;;;19.50;99.90;;;;;;4896765;29;20084;-73
2021/09/10 01:04:44;;;;;;;15.73;14.07;;;19.50;99.90;;;;;;4898787;29;20029;-86
2021/09/10 01:07:10;;;;;;;15.52;13.90;;;19.40;99.90;;;;;;4901064;29;20032;-76
2021/09/10 01:09:37;;;;;;;15.70;14.05;;;19.40;99.90;;;;;;4900957;29;20529;-74
2021/09/10 01:12:04;;;;;;;16.30;14.65;;;19.40;99.90;;;;;;4899654;29;20033;-79
2021/09/10 01:14:30;;;;;;;16.13;14.48;;;19.30;99.90;;;;;;4900067;29;20040;-83
2021/09/10 01:16:56;;;;;;;17.25;15.45;;;19.30;99.90;;;;;;4900368;29;20024;-76
2021/09/10 01:19:30;;;;;;;16.13;14.60;;;19.30;99.90;;;;;;4898677;29;20021;-79
2021/09/10 01:21:58;;;;;;;15.60;14.10;;;19.30;99.90;;;;;;4900432;29;20067;-74
2021/09/10 01:24:26;;;;;;;16.33;14.75;;;19.20;99.90;;;;;;4899339;29;20071;-74
2021/09/10 01:26:52;;;;;;;16.92;14.40;;;19.20;99.90;;;;;;4899313;29;20046;-72
2021/09/10 01:29:18;;;;;;;16.67;14.98;;;19.20;99.90;;;;;;4900290;29;20528;-72
2021/09/10 01:31:43;;;;;;;15.70;14.20;;;19.10;99.90;;;;;;4900060;29;20049;-72
2021/09/10 01:34:09;;;;;;;16.02;14.52;;;19.10;99.90;;;;;;4898048;29;20043;-73
2021/09/10 01:36:34;;;;;;;15.93;14.38;;;19.10;99.90;;;;;;4898985;29;20021;-73
2021/09/10 01:39:00;;;;;;;17.08;15.10;;;19.20;99.90;;;;;;4899878;29;20033;-72
2021/09/10 01:41:25;;;;;;;15.43;13.93;;;19.20;99.90;;;;;;4897949;29;20060;-72
2021/09/10 01:43:51;;;;;;;14.93;13.43;;;19.30;99.90;;;;;;4899774;29;20052;-72
2021/09/10 01:46:16;;;;;;;17.45;15.73;;;19.30;99.90;;;;;;4898350;29;20056;-72
2021/09/10 01:48:42;;;;;;;16.73;15.05;;;19.30;99.90;;;;;;4898994;29;20096;-72
2021/09/10 01:51:07;;;;;;;16.92;15.23;;;19.30;99.90;;;;;;4898195;29;20076;-81
2021/09/10 01:53:33;;;;;;;17.50;15.70;;;19.30;99.90;;;;;;4898827;29;20048;-73
2021/09/10 01:55:59;;;;;;;16.90;15.20;;;19.20;99.90;;;;;;4897649;29;20028;-77
2021/09/10 01:58:24;;;;;;;16.20;14.68;;;19.20;99.90;;;;;;4899663;29;20047;-74
2021/09/10 02:00:50;;;;;;;16.58;14.52;;;19.20;99.90;;;;;;4899097;29;20481;-76
2021/09/10 02:03:16;;;;;;;17.10;15.30;;;19.20;99.90;;;;;;4899916;29;20029;-77
2021/09/10 02:05:41;;;;;;;15.93;14.43;;;19.20;99.90;;;;;;4899766;29;20032;-86
2021/09/10 02:08:07;;;;;;;16.90;15.25;;;19.20;99.90;;;;;;4899126;29;20180;-78
2021/09/10 02:10:33;;;;;;;17.55;15.75;;;19.10;99.90;;;;;;4898627;29;20031;-76
2021/09/10 02:12:59;;;;;;;17.27;15.52;;;19.10;99.90;;;;;;4897962;29;20033;-80
2021/09/10 02:15:24;;;;;;;17.58;15.77;;;19.10;99.90;;;;;;4898890;29;20127;-80
2021/09/10 02:17:50;;;;;;;20.42;16.35;;;19.00;99.90;;;;;;4898133;29;20043;-84
2021/09/10 02:20:16;;;;;;;18.20;16.30;;;19.00;99.90;;;;;;4899522;29;20031;-81
2021/09/10 02:22:44;;;;;;;17.42;15.82;;;19.00;99.90;;;;;;4898889;29;20039;-76
2021/09/10 02:25:09;;;;;;;18.02;16.13;;;19.00;99.90;;;;;;4899570;29;20021;-79
2021/09/10 02:27:35;;;;;;;17.65;15.85;;;18.90;99.90;;;;;;4898258;29;20035;-78
2021/09/10 02:30:01;;;;;;;16.48;14.77;;;18.90;99.90;;;;;;4897863;29;20029;-79
2021/09/10 02:32:26;;;;;;;16.55;14.95;;;18.90;99.90;;;;;;4899587;29;20037;-80
2021/09/10 02:34:52;;;;;;;17.83;16.02;;;18.80;99.90;;;;;;4899247;29;20025;-73
2021/09/10 02:37:18;;;;;;;16.88;15.10;;;18.80;99.90;;;;;;4898193;29;20032;-72
2021/09/10 02:39:43;;;;;;;17.05;15.40;;;18.80;99.90;;;;;;4898985;29;20056;-74
2021/09/10 02:42:09;;;;;;;16.90;15.40;;;18.80;99.90;;;;;;4898824;29;20020;-72
2021/09/10 02:44:34;;;;;;;17.58;15.88;;;18.70;99.90;;;;;;4897053;29;20033;-72
2021/09/10 02:47:00;;;;;;;15.95;14.45;;;18.70;99.90;;;;;;4898460;29;20053;-72
2021/09/10 02:49:25;;;;;;;17.33;15.52;;;18.70;99.90;;;;;;4897709;29;20017;-74
2021/09/10 02:51:51;;;;;;;18.27;16.55;;;18.70;99.90;;;;;;4897905;29;20033;-72
2021/09/10 02:54:17;;;;;;;19.05;16.33;;;18.60;99.90;;;;;;4897341;29;20496;-72
2021/09/10 02:56:42;;;;;;;18.23;15.77;;;18.60;99.90;;;;;;4898553;29;20063;-72
2021/09/10 02:59:08;;;;;;;17.48;15.77;;;18.60;99.90;;;;;;4896289;29;20044;-72
2021/09/10 03:01:33;;;;;;;18.55;16.65;;;18.50;99.90;;;;;;4898741;29;20036;-77
2021/09/10 03:03:59;;;;;;;18.48;16.55;;;18.50;99.90;;;;;;4898280;29;20028;-73
2021/09/10 03:06:24;;;;;;;18.02;16.17;;;18.50;99.90;;;;;;4897848;29;20104;-74
2021/09/10 03:08:50;;;;;;;16.85;15.25;;;18.50;99.90;;;;;;4898083;29;20039;-72
2021/09/10 03:11:15;;;;;;;17.67;15.77;;;18.50;99.90;;;;;;4897769;29;20020;-72
2021/09/10 03:13:41;;;;;;;18.30;16.48;;;18.40;99.90;;;;;;4898090;29;20060;-72
2021/09/10 03:16:06;;;;;;;17.15;15.55;;;18.40;99.90;;;;;;4898105;29;20016;-72
2021/09/10 03:18:32;;;;;;;18.02;16.23;;;18.40;99.90;;;;;;4897787;29;20032;-73
2021/09/10 03:20:58;;;;;;;19.50;17.48;;;18.40;99.90;;;;;;4897887;29;20055;-73
2021/09/10 03:23:24;;;;;;;18.55;16.50;;;18.40;99.90;;;;;;4896853;29;20777;-72
2021/09/10 03:25:49;;;;;;;17.90;15.82;;;18.30;99.90;;;;;;4896087;29;20024;-73
2021/09/10 03:28:15;;;;;;;17.90;16.00;;;18.30;99.90;;;;;;4896209;29;20107;-73
2021/09/10 03:30:40;;;;;;;17.42;15.65;;;18.30;99.90;;;;;;4898110;29;20040;-72
2021/09/10 03:33:06;;;;;;;17.45;15.80;;;18.30;99.90;;;;;;4895789;29;20504;-72
2021/09/10 03:35:31;;;;;;;16.75;15.15;;;18.30;99.90;;;;;;4898076;29;20088;-72
2021/09/10 03:37:57;;;;;;;17.05;15.35;;;18.30;99.90;;;;;;4897501;29;20123;-73
2021/09/10 03:40:24;;;;;;;16.90;15.15;;;18.30;99.90;;;;;;4897268;29;20052;-73
2021/09/10 03:42:50;;;;;;;16.98;15.27;;;18.30;99.90;;;;;;4896600;29;20430;-73
2021/09/10 03:45:16;;;;;;;17.58;15.65;;;18.30;99.90;;;;;;4896464;29;20473;-73
2021/09/10 03:47:41;;;;;;;16.63;14.60;;;18.40;99.90;;;;;;4897340;29;20052;-73
2021/09/10 03:50:07;;;;;;;17.88;16.17;;;18.40;99.90;;;;;;4901360;29;20386;-74
2021/09/10 03:52:33;;;;;;;17.20;15.50;;;18.40;99.90;;;;;;4915473;29;20036;-73
2021/09/10 03:54:58;;;;;;;18.38;16.50;;;18.30;99.90;;;;;;4908213;29;20470;-72
2021/09/10 03:57:24;;;;;;;17.55;15.95;;;18.40;99.90;;;;;;4897549;29;20029;-78
2021/09/10 03:59:49;;;;;;;17.00;15.40;;;18.40;99.90;;;;;;4897623;29;20160;-72
2021/09/10 04:02:15;;;;;;;18.38;16.48;;;18.40;99.90;;;;;;4897096;29;20044;-72
2021/09/10 04:04:40;;;;;;;18.15;16.35;;;18.40;99.90;;;;;;4897548;29;20487;-72
2021/09/10 04:07:06;;;;;;;16.08;14.48;;;18.40;99.90;;;;;;4897693;29;20047;-80
2021/09/10 04:09:32;;;;;;;17.00;15.30;;;18.30;99.90;;;;;;4897297;29;20036;-71
2021/09/10 04:11:57;;;;;;;17.77;15.88;;;18.30;99.90;;;;;;4897036;29;20041;-71
2021/09/10 04:14:23;;;;;;;20.92;16.88;;;18.30;99.90;;;;;;4897419;29;20020;-72
2021/09/10 04:16:48;;;;;;;20.08;15.77;;;18.20;99.90;;;;;;4909484;29;20031;-71
2021/09/10 04:19:14;;;;;;;17.67;15.80;;;18.20;99.90;;;;;;4916102;29;20487;-71
2021/09/10 04:21:39;;;;;;;18.13;16.33;;;18.20;99.90;;;;;;4915639;29;20084;-75
2021/09/10 04:24:05;;;;;;;18.05;15.35;;;18.10;99.90;;;;;;4912048;29;20124;-82
2021/09/10 04:26:31;;;;;;;17.20;15.48;;;18.10;99.90;;;;;;4896710;29;20032;-73
2021/09/10 04:28:56;;;;;;;17.10;15.40;;;18.10;99.90;;;;;;4894969;29;20035;-72
2021/09/10 04:31:22;;;;;;;17.80;15.43;;;18.10;99.90;;;;;;4896103;29;20557;-75
2021/09/10 04:33:47;;;;;;;17.58;15.77;;;18.10;99.90;;;;;;4908683;29;20092;-88
2021/09/10 04:36:14;;;;;;;17.85;15.95;;;18.10;99.90;;;;;;4895789;29;20028;-86
2021/09/10 04:38:40;;;;;;;17.15;15.50;;;18.10;99.90;;;;;;4903427;29;20020;-72
2021/09/10 04:41:06;;;;;;;15.48;13.98;;;18.00;99.90;;;;;;4915823;29;20115;-72
2021/09/10 04:43:31;;;;;;;15.45;13.95;;;18.00;99.90;;;;;;4914017;29;20031;-78
2021/09/10 04:45:57;;;;;;;16.13;14.18;;;18.00;99.90;;;;;;4915327;29;20503;-73
2021/09/10 04:48:23;;;;;;;16.10;14.68;;;18.00;99.90;;;;;;4913920;29;20031;-70
2021/09/10 04:50:48;;;;;;;16.52;14.82;;;18.00;99.90;;;;;;4902422;29;20099;-74
2021/09/10 04:53:14;;;;;;;15.80;14.23;;;18.00;99.90;;;;;;4895550;29;20511;-78
2021/09/10 04:55:39;;;;;;;15.70;14.13;;;18.00;99.90;;;;;;4895817;29;20021;-85
2021/09/10 04:58:05;;;;;;;15.48;13.98;;;18.00;99.90;;;;;;4904373;29;20495;-84
2021/09/10 05:00:31;;;;;;;14.07;12.68;;;18.00;99.90;;;;;;4914525;29;20031;-84
2021/09/10 05:02:56;;;;;;;14.82;13.43;;;18.00;99.90;;;;;;4914278;29;20032;-89
2021/09/10 05:05:22;;;;;;;14.30;12.98;;;18.00;99.90;;;;;;4905182;29;20034;-70
2021/09/10 05:07:47;;;;;;;13.90;12.60;;;18.00;99.90;;;;;;4905890;29;20393;-72
2021/09/10 05:10:13;;;;;;;15.05;13.60;;;18.00;99.90;;;;;;4897202;29;20471;-72
2021/09/10 05:12:38;;;;;;;13.98;12.38;;;18.00;99.90;;;;;;4912286;29;20064;-75
2021/09/10 05:15:04;;;;;;;13.80;12.38;;;18.00;99.90;;;;;;4898927;29;20088;-71
2021/09/10 05:17:30;;;;;;;14.02;12.32;;;18.00;99.90;;;;;;4894734;29;20076;-72
2021/09/10 05:19:57;;;;;;;12.30;11.10;;;17.90;99.90;;;;;;4906090;29;20028;-78
2021/09/10 05:22:23;;;;;;;13.80;12.32;;;17.90;99.90;;;;;;4914404;29;20399;-69
2021/09/10 05:24:48;;;;;;;13.45;12.13;;;17.90;99.90;;;;;;4897734;29;20020;-70
2021/09/10 15:46:21;;;;;;;13.35;9.13;;;22.20;99.90;;;;;;5098959;23;20075;-72
2021/09/10 15:48:46;;;;;;;13.32;8.55;;;22.30;99.90;;;;;;4933298;29;20692;-77
2021/09/10 15:51:12;;;;;;;8.02;7.15;;;22.40;99.90;;;;;;4934203;29;20023;-73
2021/09/10 15:53:37;;;;;;;9.18;7.78;;;22.40;99.90;;;;;;4932772;29;20059;-72
2021/09/10 15:56:03;;;;;;;11.13;9.15;;;22.50;99.90;;;;;;4930955;29;20032;-72
2021/09/10 15:58:30;;;;;;;9.68;7.90;;;22.60;99.90;;;;;;4932643;29;20118;-76
2021/09/10 16:00:56;;;;;;;10.07;7.40;;;22.60;99.90;;;;;;4934198;29;20020;-77
2021/09/10 16:03:22;;;;;;;6.85;6.00;;;22.60;99.90;;;;;;4933615;29;20028;-78
2021/09/10 16:05:47;;;;;;;5.97;5.38;;;22.60;99.90;;;;;;4919123;29;20075;-73
2021/09/10 16:08:13;;;;;;;7.28;5.70;;;22.70;99.90;;;;;;4934926;29;20035;-82
2021/09/10 16:10:39;;;;;;;5.70;5.20;;;22.70;99.90;;;;;;4935260;29;20383;-78
2021/09/10 16:13:05;;;;;;;5.30;4.80;;;22.80;99.90;;;;;;4927606;29;20555;-73
2021/09/10 16:15:32;;;;;;;5.40;4.70;;;23.00;99.90;;;;;;4914205;29;20473;-72
2021/09/10 16:17:57;;;;;;;4.75;4.35;;;23.10;99.90;;;;;;4915484;29;20084;-79
2021/09/10 16:20:23;;;;;;;6.97;4.78;;;23.20;99.90;;;;;;4921641;29;20027;-69
2021/09/10 16:22:50;;;;;;;7.72;4.47;;;23.20;99.90;;;;;;4930235;29;20543;-70
2021/09/10 16:25:16;;;;;;;8.23;6.07;;;23.30;99.90;;;;;;4925160;29;20117;-70
2021/09/10 16:27:42;;;;;;;8.73;4.95;;;23.30;99.90;;;;;;4923805;29;20032;-74
2021/09/10 16:30:10;;;;;;;7.63;4.82;;;23.40;99.90;;;;;;4915708;29;20035;-77
2021/09/10 16:32:36;;;;;;;15.00;6.32;;;23.40;99.90;;;;;;4913449;29;20039;-72
2021/09/10 16:35:04;;;;;;;10.57;5.32;;;23.50;99.90;;;;;;4914114;29;20076;-72
2021/09/10 16:37:31;;;;;;;4.70;4.30;;;23.40;99.90;;;;;;4913506;29;20421;-75
2021/09/10 16:39:57;;;;;;;7.72;4.65;;;23.30;99.90;;;;;;4913441;29;20024;-74
2021/09/10 16:42:23;;;;;;;6.63;5.45;;;23.30;99.90;;;;;;4927727;29;20500;-72
2021/09/10 16:44:49;;;;;;;6.30;5.18;;;23.10;99.90;;;;;;4916404;29;20024;-74
2021/09/10 16:47:15;;;;;;;6.10;5.53;;;22.80;99.90;;;;;;4915043;29;20056;-79
2021/09/10 16:49:40;;;;;;;6.90;5.68;;;22.60;99.90;;;;;;4914515;29;20024;-75
2021/09/10 16:52:06;;;;;;;10.30;6.18;;;22.40;99.90;;;;;;4913602;29;20036;-73
2021/09/10 16:54:31;;;;;;;8.05;6.05;;;22.30;99.90;;;;;;4913841;29;20507;-73
2021/09/10 16:56:57;;;;;;;8.00;6.38;;;22.20;99.90;;;;;;4912700;29;20059;-72
2021/09/10 16:59:24;;;;;;;8.27;5.93;;;22.30;99.90;;;;;;4915368;29;20099;-82
2021/09/10 17:01:49;;;;;;;7.32;6.63;;;22.40;99.90;;;;;;4914796;29;20024;-72
2021/09/10 17:04:15;;;;;;;11.80;7.43;;;22.50;99.90;;;;;;4913783;29;20028;-75
2021/09/10 17:06:40;;;;;;;11.18;7.63;;;22.60;99.90;;;;;;4914821;29;20036;-73
2021/09/10 17:09:06;;;;;;;10.40;7.20;;;22.50;99.90;;;;;;4913849;29;20032;-75
2021/09/10 17:11:31;;;;;;;9.35;6.88;;;22.50;99.90;;;;;;4915330;29;20016;-79
2021/09/10 17:13:57;;;;;;;8.63;7.47;;;22.40;99.90;;;;;;4915069;29;20426;-80
2021/09/10 17:16:23;;;;;;;9.50;7.55;;;22.30;99.90;;;;;;4914965;29;20032;-77
2021/09/10 17:18:49;;;;;;;12.70;8.57;;;22.30;99.90;;;;;;4928835;29;20031;-73
2021/09/10 17:21:15;;;;;;;8.43;7.20;;;22.10;99.90;;;;;;4931064;29;20039;-76
2021/09/10 17:23:40;;;;;;;10.82;7.22;;;22.00;99.90;;;;;;4914561;29;20384;-71
2021/09/10 17:26:06;;;;;;;10.90;7.63;;;21.90;99.90;;;;;;4914609;29;20080;-73
2021/09/10 17:28:31;;;;;;;10.50;8.63;;;21.80;99.90;;;;;;4913537;29;20485;-73
2021/09/10 17:30:57;;;;;;;12.80;7.18;;;21.70;99.90;;;;;;4912651;29;20024;-72
2021/09/10 17:33:23;;;;;;;10.52;8.20;;;21.60;99.90;;;;;;4913439;29;20039;-73
2021/09/10 17:35:48;;;;;;;8.95;8.05;;;21.50;99.90;;;;;;4914141;29;20030;-72
2021/09/10 17:38:14;;;;;;;20.63;9.88;;;21.50;99.90;;;;;;4912995;29;20032;-73
2021/09/10 17:40:40;;;;;;;12.15;7.13;;;21.40;99.90;;;;;;4916013;29;20027;-72
2021/09/10 17:43:05;;;;;;;15.20;8.30;;;21.30;99.90;;;;;;4912961;29;20518;-74
2021/09/10 17:45:31;;;;;;;14.60;8.48;;;21.30;99.90;;;;;;4913134;29;20043;-73
2021/09/10 17:47:57;;;;;;;11.93;9.55;;;21.20;99.90;;;;;;4917863;29;20028;-74
2021/09/10 17:50:22;;;;;;;9.73;8.73;;;21.20;99.90;;;;;;4917248;29;20024;-73
2021/09/10 17:52:50;;;;;;;8.88;7.93;;;21.10;99.90;;;;;;4916873;29;20184;-73
2021/09/10 17:55:15;;;;;;;9.25;8.05;;;21.00;99.90;;;;;;4921954;29;20058;-72
2021/09/10 17:57:41;;;;;;;10.05;9.15;;;20.90;99.90;;;;;;4935188;29;20110;-72
2021/09/10 18:00:08;;;;;;;10.10;8.65;;;20.80;99.90;;;;;;4934596;29;20119;-73
2021/09/10 18:02:34;;;;;;;14.00;8.88;;;20.70;99.90;;;;;;4933125;29;20477;-76
2021/09/10 18:05:00;;;;;;;11.02;8.30;;;20.70;99.90;;;;;;4917552;29;20063;-78
2021/09/10 18:07:26;;;;;;;10.98;8.77;;;20.60;99.90;;;;;;4915491;29;20024;-72
2021/09/10 18:09:52;;;;;;;8.82;7.88;;;20.50;99.90;;;;;;4917712;29;20103;-73
2021/09/10 18:12:17;;;;;;;13.23;7.43;;;20.40;99.90;;;;;;4917449;29;20183;-71
2021/09/10 18:14:43;;;;;;;8.40;7.55;;;20.30;99.90;;;;;;4921297;29;20032;-72
2021/09/10 18:17:09;;;;;;;10.32;7.40;;;20.20;99.90;;;;;;4926775;29;20273;-71
2021/09/10 18:19:34;;;;;;;11.95;7.70;;;20.20;99.90;;;;;;4927553;29;20031;-70
2021/09/10 18:22:00;;;;;;;9.75;8.48;;;20.10;99.90;;;;;;4918938;29;20028;-71
2021/09/10 18:24:25;;;;;;;7.88;7.18;;;20.00;99.90;;;;;;4917570;29;20028;-72
2021/09/10 18:26:51;;;;;;;11.20;8.48;;;19.90;99.90;;;;;;4917155;29;20489;-73
2021/09/10 18:29:17;;;;;;;9.52;7.57;;;19.90;99.90;;;;;;4916848;29;20036;-73
2021/09/10 18:31:42;;;;;;;12.82;8.15;;;19.80;99.90;;;;;;4916528;29;20034;-72
2021/09/10 18:34:08;;;;;;;10.63;8.02;;;19.80;99.90;;;;;;4916114;29;20044;-72
2021/09/10 18:36:33;;;;;;;9.55;7.90;;;19.80;99.90;;;;;;4915868;29;20099;-73
2021/09/10 18:38:59;;;;;;;9.90;7.65;;;19.80;99.90;;;;;;4916913;29;20038;-74
2021/09/10 18:41:25;;;;;;;9.75;7.00;;;19.80;99.90;;;;;;4928347;29;20032;-74
2021/09/10 18:43:51;;;;;;;9.70;7.93;;;19.80;99.90;;;;;;4915487;29;20032;-75
2021/09/10 18:46:17;;;;;;;9.45;7.03;;;19.80;99.90;;;;;;4923011;29;20050;-74
2021/09/10 18:48:43;;;;;;;7.43;6.68;;;19.80;99.90;;;;;;4934330;29;20400;-75
2021/09/10 18:51:08;;;;;;;13.40;7.07;;;19.70;99.90;;;;;;4918471;29;20081;-75
2021/09/10 18:53:34;;;;;;;7.75;6.57;;;19.70;99.90;;;;;;4915678;29;20044;-74
2021/09/10 18:56:02;;;;;;;7.35;6.65;;;19.70;99.90;;;;;;4916268;29;20186;-80
2021/09/10 18:58:27;;;;;;;9.15;7.05;;;19.70;99.90;;;;;;4915019;29;20473;-75
2021/09/10 19:00:53;;;;;;;7.72;6.68;;;19.70;99.90;;;;;;4917101;29;20028;-73
2021/09/10 19:03:18;;;;;;;8.80;7.90;;;19.60;99.90;;;;;;4916413;29;20513;-73
2021/09/10 19:05:44;;;;;;;8.20;7.00;;;19.60;99.90;;;;;;4917591;29;20042;-77
2021/09/10 19:08:10;;;;;;;8.25;7.45;;;19.60;99.90;;;;;;4915450;29;20043;-75
2021/09/10 19:10:35;;;;;;;8.95;7.60;;;19.50;99.90;;;;;;4915265;29;20028;-73
2021/09/10 19:13:01;;;;;;;7.65;6.95;;;19.50;99.90;;;;;;4917325;29;20114;-74
2021/09/10 19:15:27;;;;;;;9.75;8.32;;;19.40;99.90;;;;;;4916759;29;20438;-76
2021/09/10 19:17:53;;;;;;;9.30;8.23;;;19.30;99.90;;;;;;4917673;29;20036;-75
2021/09/10 19:20:18;;;;;;;11.95;9.10;;;19.20;99.90;;;;;;4916032;29;20028;-76
2021/09/10 19:22:44;;;;;;;9.82;8.82;;;19.20;99.90;;;;;;4916829;29;20040;-75
2021/09/10 19:25:10;;;;;;;11.20;8.27;;;19.20;99.90;;;;;;4914618;29;20039;-71
2021/09/10 19:27:58;;;;;;;10.27;8.23;;;19.10;99.90;;;;;;4916918;29;20032;-79
2021/09/10 19:30:24;;;;;;;9.82;8.93;;;19.10;99.90;;;;;;4914429;29;20123;-79
2021/09/10 19:32:50;;;;;;;10.95;8.50;;;19.00;99.90;;;;;;4923710;29;20047;-77
2021/09/10 19:35:16;;;;;;;9.50;8.27;;;19.00;99.90;;;;;;4931766;29;20067;-73
2021/09/10 19:37:41;;;;;;;14.00;9.07;;;18.90;99.90;;;;;;4930876;29;20399;-77
2021/09/10 19:40:07;;;;;;;9.70;8.63;;;18.90;99.90;;;;;;4929265;29;20031;-74
2021/09/10 19:42:33;;;;;;;10.55;8.73;;;18.80;99.90;;;;;;4930330;29;20109;-76
2021/09/10 19:44:59;;;;;;;11.25;8.88;;;18.70;99.90;;;;;;4929974;29;20035;-77
2021/09/10 19:47:24;;;;;;;10.75;9.65;;;18.70;99.90;;;;;;4930788;29;20059;-77
2021/09/10 19:49:50;;;;;;;11.27;9.80;;;18.70;99.90;;;;;;4911875;29;20500;-76
2021/09/10 19:52:15;;;;;;;12.52;9.20;;;18.70;99.90;;;;;;4910808;29;20059;-77
2021/09/10 19:54:41;;;;;;;14.25;10.60;;;18.60;99.90;;;;;;4911534;29;20039;-77
2021/09/10 19:57:06;;;;;;;11.48;10.23;;;18.60;99.90;;;;;;4911964;29;20485;-77
2021/09/10 19:59:32;;;;;;;12.10;10.32;;;18.50;99.90;;;;;;4929656;29;20040;-76
2021/09/10 20:01:58;;;;;;;12.23;11.02;;;18.50;99.90;;;;;;4930262;29;20027;-77
2021/09/10 20:04:24;;;;;;;17.60;10.57;;;18.50;99.90;;;;;;4930573;29;20821;-78
2021/09/10 20:06:49;;;;;;;11.38;10.38;;;18.50;99.90;;;;;;4929388;29;20521;-77
2021/09/10 20:09:15;;;;;;;11.27;10.07;;;18.50;99.90;;;;;;4931462;29;20062;-76
2021/09/10 20:11:41;;;;;;;11.25;10.15;;;18.40;99.90;;;;;;4913828;29;20042;-77
2021/09/10 20:14:07;;;;;;;11.82;9.68;;;18.40;99.90;;;;;;4917965;29;20055;-76
2021/09/10 20:16:34;;;;;;;14.27;9.90;;;18.40;99.90;;;;;;4930344;29;20134;-78
2021/09/10 20:19:01;;;;;;;11.80;10.02;;;18.30;99.90;;;;;;4915774;29;20107;-80
2021/09/10 20:21:27;;;;;;;11.50;10.10;;;18.30;99.90;;;;;;4930244;29;20023;-81
2021/09/10 20:23:53;;;;;;;11.55;9.88;;;18.30;99.90;;;;;;4929143;29;20043;-78
2021/09/10 20:26:20;;;;;;;10.68;9.57;;;18.20;99.90;;;;;;4931017;29;20023;-78
2021/09/10 20:28:46;;;;;;;11.68;10.32;;;18.20;99.90;;;;;;4928506;29;20031;-78
2021/09/10 20:31:12;;;;;;;10.77;9.77;;;18.20;99.90;;;;;;4929504;29;20020;-76
2021/09/10 20:33:37;;;;;;;12.90;10.75;;;18.20;99.90;;;;;;4930113;29;20093;-76
2021/09/10 20:36:06;;;;;;;10.85;9.85;;;18.10;99.90;;;;;;4915316;29;20075;-77
2021/09/10 20:38:32;;;;;;;12.32;10.32;;;18.20;99.90;;;;;;4910259;29;20048;-78
2021/09/10 20:40:58;;;;;;;14.15;10.00;;;18.20;99.90;;;;;;4909194;29;20101;-74
2021/09/10 20:43:24;;;;;;;19.75;11.45;;;18.30;99.90;;;;;;4910768;29;20142;-76
2021/09/10 20:45:49;;;;;;;12.30;10.07;;;18.30;99.90;;;;;;4917220;29;20052;-75
2021/09/10 20:48:15;;;;;;;12.13;10.98;;;18.40;99.90;;;;;;4929199;29;20408;-80
2021/09/10 20:50:42;;;;;;;12.05;10.85;;;18.40;99.90;;;;;;4929874;29;20047;-75
2021/09/10 20:53:08;;;;;;;11.52;10.20;;;18.50;99.90;;;;;;4929558;29;20036;-81
2021/09/10 20:55:34;;;;;;;10.60;9.55;;;18.50;99.90;;;;;;4931153;29;20027;-80
2021/09/10 20:58:02;;;;;;;18.00;10.27;;;18.60;99.90;;;;;;4929943;29;20032;-82
2021/09/10 21:00:29;;;;;;;10.73;9.73;;;18.70;99.90;;;;;;4929627;29;20023;-84
2021/09/10 21:02:55;;;;;;;10.90;9.80;;;18.70;99.90;;;;;;4928772;29;20027;-79
2021/09/10 21:05:21;;;;;;;15.35;10.32;;;18.70;99.90;;;;;;4930264;29;20559;-79
2021/09/10 21:07:47;;;;;;;10.70;9.70;;;18.70;99.90;;;;;;4931095;29;20067;-78
2021/09/10 21:10:12;;;;;;;11.77;9.88;;;18.70;99.90;;;;;;4929508;29;20581;-80
2021/09/10 21:12:38;;;;;;;11.65;9.30;;;18.80;99.90;;;;;;4929682;29;20083;-79
2021/09/10 21:15:04;;;;;;;10.25;9.00;;;18.80;99.90;;;;;;4918956;29;20028;-81
2021/09/10 21:17:30;;;;;;;11.32;9.98;;;18.80;99.90;;;;;;4928968;29;20106;-81
2021/09/10 21:19:56;;;;;;;11.07;9.95;;;18.80;99.90;;;;;;4918828;29;20413;-82
2021/09/10 21:22:21;;;;;;;9.23;8.27;;;18.90;99.90;;;;;;4913733;29;20118;-81
2021/09/10 21:24:47;;;;;;;13.30;8.80;;;18.90;99.90;;;;;;4913863;29;20139;-76
2021/09/10 21:27:12;;;;;;;9.13;8.18;;;18.90;99.90;;;;;;4915502;29;20059;-79
2021/09/10 21:29:41;;;;;;;13.05;8.20;;;18.90;99.90;;;;;;4914772;29;20473;-78
2021/09/10 21:32:08;;;;;;;12.40;9.02;;;18.90;99.90;;;;;;4914841;29;20507;-78
2021/09/10 21:34:34;;;;;;;10.43;9.38;;;18.90;99.90;;;;;;4914369;29;20039;-78
2021/09/10 21:37:00;;;;;;;10.65;8.82;;;18.90;99.90;;;;;;4913189;29;20024;-81
2021/09/10 21:39:25;;;;;;;10.05;8.23;;;18.90;99.90;;;;;;4919568;29;20043;-79
2021/09/10 21:41:51;;;;;;;14.02;8.65;;;18.90;99.90;;;;;;4933138;29;20079;-80
2021/09/10 21:44:17;;;;;;;13.52;8.68;;;19.00;99.90;;;;;;4932652;29;20059;-79
2021/09/10 21:46:42;;;;;;;9.35;8.32;;;19.00;99.90;;;;;;4932558;29;20055;-79
2021/09/10 21:49:08;;;;;;;9.73;8.73;;;19.00;99.90;;;;;;4933001;29;20036;-78
2021/09/10 21:51:34;;;;;;;9.85;8.43;;;19.10;99.90;;;;;;4930944;29;20027;-78
2021/09/10 21:53:59;;;;;;;10.23;8.80;;;19.10;99.90;;;;;;4917089;29;20051;-76
2021/09/10 21:56:25;;;;;;;9.38;8.52;;;19.20;99.90;;;;;;4937022;29;20066;-77
2021/09/10 21:58:52;;;;;;;14.05;9.93;;;19.20;99.90;;;;;;4935705;29;20027;-73
2021/09/10 22:01:18;;;;;;;11.32;10.23;;;19.20;99.90;;;;;;4936518;29;20019;-77
2021/09/10 22:03:44;;;;;;;12.02;10.77;;;19.20;99.90;;;;;;4934989;29;20532;-75
2021/09/10 22:06:10;;;;;;;10.63;9.63;;;19.30;99.90;;;;;;4935210;29;20054;-76
2021/09/10 22:08:36;;;;;;;12.32;10.27;;;19.20;99.90;;;;;;4926621;29;20504;-74
2021/09/10 22:11:02;;;;;;;11.15;10.13;;;19.30;99.90;;;;;;4927301;29;20019;-75
2021/09/10 22:13:28;;;;;;;14.90;13.52;;;19.20;99.90;;;;;;4923442;29;20033;-75
2021/09/10 22:15:53;;;;;;;12.63;11.45;;;19.20;99.90;;;;;;4920082;29;20422;-75
2021/09/10 22:18:19;;;;;;;13.68;12.10;;;19.20;99.90;;;;;;4917549;29;20035;-76
2021/09/10 22:20:45;;;;;;;13.55;11.32;;;19.20;99.90;;;;;;4924572;29;20028;-75
2021/09/10 22:23:10;;;;;;;14.18;11.25;;;19.20;99.90;;;;;;4917633;29;20051;-74
2021/09/10 22:25:36;;;;;;;16.05;11.90;;;19.10;99.90;;;;;;4917879;29;20036;-76
2021/09/10 22:28:02;;;;;;;14.82;11.40;;;19.10;99.90;;;;;;4915433;29;20028;-76
2021/09/10 22:30:28;;;;;;;20.23;12.27;;;19.00;99.90;;;;;;4916689;29;20064;-77
2021/09/10 22:32:54;;;;;;;13.45;10.77;;;18.90;99.90;;;;;;4917174;29;20064;-76
2021/09/10 22:35:20;;;;;;;12.52;10.15;;;18.80;99.90;;;;;;4916034;29;20028;-76
2021/09/10 22:37:46;;;;;;;12.35;10.07;;;18.80;99.90;;;;;;4916202;29;20024;-78
2021/09/10 22:40:12;;;;;;;11.65;10.45;;;18.70;99.90;;;;;;4917076;29;20024;-76
2021/09/10 22:42:38;;;;;;;11.30;10.23;;;18.70;99.90;;;;;;4916492;29;20022;-76
2021/09/10 22:45:05;;;;;;;14.55;10.88;;;18.60;99.90;;;;;;4916045;29;20473;-75